Time;durP1;ratioP1;P1;durP2;ratioP2;P2;SDS_P1;SDS_P2;PMS_P1;PMS_P2;Temp;Humidity;BMP_temperature;BMP_pressure;BME280_temperature;BME280_humidity;BME280_pressure;Samples;Min_cycle;Max_cycle;Signal;HPM_P1;HPM_P2
2023/04/20 00:00:36;;;;;;;1.90;1.50;;;18.70;55.30;;;;;;5069000;28;20190;-48
2023/04/20 00:03:06;;;;;;;2.57;1.80;;;18.70;55.30;;;;;;5069816;28;20768;-48
2023/04/20 00:05:38;;;;;;;1.70;1.60;;;18.70;55.30;;;;;;5065301;28;20201;-48
2023/04/20 00:08:09;;;;;;;2.67;1.93;;;18.70;55.20;;;;;;5069405;28;20217;-48
2023/04/20 00:10:39;;;;;;;1.93;1.70;;;18.60;55.10;;;;;;5074632;28;20208;-48
2023/04/20 00:13:07;;;;;;;2.70;1.70;;;18.60;55.20;;;;;;5065237;28;20271;-47
2023/04/20 00:15:37;;;;;;;1.90;1.60;;;18.60;55.10;;;;;;5070503;28;20672;-48
2023/04/20 00:18:09;;;;;;;2.87;1.80;;;18.60;55.10;;;;;;5057863;28;20217;-48
2023/04/20 00:20:41;;;;;;;1.80;1.60;;;18.60;55.10;;;;;;5070693;28;20642;-48
2023/04/20 00:23:12;;;;;;;1.60;1.47;;;18.60;55.10;;;;;;5065466;28;20205;-48
2023/04/20 00:25:44;;;;;;;1.90;1.70;;;18.60;55.10;;;;;;5076245;28;20263;-48
2023/04/20 00:28:15;;;;;;;1.70;1.47;;;18.50;55.00;;;;;;5059640;28;20228;-48
2023/04/20 00:30:46;;;;;;;1.80;1.40;;;18.50;55.10;;;;;;5073566;28;20312;-48
2023/04/20 00:33:16;;;;;;;1.47;1.37;;;18.50;55.10;;;;;;5069952;28;20217;-48
2023/04/20 00:35:48;;;;;;;1.43;1.33;;;18.50;55.10;;;;;;5068469;28;20204;-48
2023/04/20 00:38:18;;;;;;;1.33;1.23;;;18.50;55.00;;;;;;5068945;28;20251;-48
2023/04/20 00:40:51;;;;;;;2.27;1.60;;;18.50;55.60;;;;;;5071200;28;20681;-48
2023/04/20 00:43:25;;;;;;;2.10;1.40;;;18.50;54.90;;;;;;5067864;28;20213;-48
2023/04/20 00:46:04;;;;;;;1.47;1.37;;;18.40;54.80;;;;;;5050302;28;20210;-48
2023/04/20 00:48:36;;;;;;;1.50;1.40;;;18.40;54.80;;;;;;5079909;28;20209;-48
2023/04/20 00:51:03;;;;;;;1.90;1.53;;;18.50;54.80;;;;;;5052475;28;20182;-48
2023/04/20 00:53:34;;;;;;;1.70;1.40;;;18.40;55.00;;;;;;5070351;28;20282;-48
2023/04/20 00:56:06;;;;;;;1.60;1.50;;;18.40;54.80;;;;;;5079453;28;20202;-48
2023/04/20 00:58:36;;;;;;;1.47;1.10;;;18.40;54.80;;;;;;5069986;28;20236;-48
2023/04/20 01:01:06;;;;;;;2.40;1.97;;;18.30;54.80;;;;;;5075658;28;20198;-48
2023/04/20 01:03:37;;;;;;;1.40;1.30;;;18.40;54.80;;;;;;5079240;28;20194;-48
2023/04/20 01:06:06;;;;;;;2.00;1.60;;;18.30;54.70;;;;;;5086627;28;20744;-48
2023/04/20 01:08:34;;;;;;;1.73;1.57;;;18.40;54.80;;;;;;5060568;28;20212;-48
2023/04/20 01:11:17;;;;;;;2.33;1.47;;;18.40;54.70;;;;;;5081997;28;20696;-48
2023/04/20 01:13:48;;;;;;;2.17;1.40;;;18.30;54.60;;;;;;5088388;28;20216;-48
2023/04/20 01:16:18;;;;;;;1.63;1.53;;;18.30;54.60;;;;;;5068468;28;20209;-48
2023/04/20 01:18:50;;;;;;;2.57;1.40;;;18.30;54.60;;;;;;5057261;28;20202;-47
2023/04/20 01:21:21;;;;;;;1.90;1.60;;;18.30;54.50;;;;;;5054117;28;20209;-48
2023/04/20 01:23:54;;;;;;;1.30;1.20;;;18.30;54.60;;;;;;5056397;28;20661;-48
2023/04/20 01:26:28;;;;;;;1.63;1.53;;;18.30;54.60;;;;;;5057412;28;20194;-47
2023/04/20 01:28:57;;;;;;;2.50;1.33;;;18.30;54.50;;;;;;5069122;28;20225;-48
2023/04/20 01:31:26;;;;;;;2.07;1.60;;;18.30;54.40;;;;;;5057852;28;20245;-48
2023/04/20 01:33:57;;;;;;;1.87;1.60;;;18.30;54.50;;;;;;5065456;28;20215;-48
2023/04/20 01:36:29;;;;;;;1.63;1.53;;;18.30;54.40;;;;;;5067246;28;20634;-48
2023/04/20 01:38:56;;;;;;;2.90;1.80;;;18.30;54.40;;;;;;5069341;28;20651;-48
2023/04/20 01:41:27;;;;;;;1.93;1.60;;;18.30;54.30;;;;;;5070369;28;20612;-48
2023/04/20 01:43:57;;;;;;;2.20;1.40;;;18.20;54.20;;;;;;5069296;28;20201;-48
2023/04/20 01:46:28;;;;;;;1.40;1.30;;;18.20;54.30;;;;;;5068457;28;20216;-48
2023/04/20 01:48:59;;;;;;;1.60;1.40;;;18.20;54.20;;;;;;5069185;28;20286;-48
2023/04/20 01:51:32;;;;;;;1.70;1.57;;;18.20;54.10;;;;;;5053978;28;20260;-48
2023/04/20 01:54:02;;;;;;;3.00;1.70;;;18.20;54.30;;;;;;5076271;28;20227;-48
2023/04/20 01:56:33;;;;;;;1.40;1.30;;;18.10;54.20;;;;;;5063887;28;20209;-48
2023/04/20 01:59:04;;;;;;;1.50;1.40;;;18.10;53.90;;;;;;5054424;28;20936;-48
2023/04/20 02:01:36;;;;;;;1.83;1.20;;;18.10;54.10;;;;;;5074748;28;20212;-48
2023/04/20 02:04:03;;;;;;;2.83;1.40;;;18.10;54.10;;;;;;5070103;28;20194;-48
2023/04/20 02:06:33;;;;;;;1.57;1.47;;;18.10;54.10;;;;;;5071111;28;20566;-48
2023/04/20 02:09:05;;;;;;;1.93;1.77;;;18.10;54.10;;;;;;5073893;28;20380;-47
2023/04/20 02:11:35;;;;;;;2.10;1.50;;;18.10;54.20;;;;;;5054165;28;20202;-48
2023/04/20 02:14:07;;;;;;;1.70;1.50;;;18.10;54.00;;;;;;5043565;28;20199;-48
2023/04/20 02:16:40;;;;;;;2.30;1.80;;;18.10;54.00;;;;;;5084590;28;20198;-48
2023/04/20 02:19:10;;;;;;;1.93;1.60;;;18.10;54.00;;;;;;5043930;28;20252;-48
2023/04/20 02:21:40;;;;;;;2.00;1.70;;;18.10;53.90;;;;;;5072277;28;20214;-48
2023/04/20 02:24:10;;;;;;;1.53;1.23;;;18.10;53.60;;;;;;5066364;28;20236;-48
2023/04/20 02:26:42;;;;;;;1.40;1.30;;;18.00;53.90;;;;;;5069806;28;20194;-48
2023/04/20 02:29:13;;;;;;;1.83;1.70;;;18.00;53.90;;;;;;5071416;28;20217;-48
2023/04/20 02:31:44;;;;;;;1.93;1.50;;;18.00;53.80;;;;;;5048101;28;20229;-48
2023/04/20 02:34:17;;;;;;;1.57;1.47;;;18.00;53.90;;;;;;5075375;28;20217;-48
2023/04/20 02:36:47;;;;;;;1.87;1.73;;;18.00;53.90;;;;;;5072424;28;20194;-48
2023/04/20 02:39:17;;;;;;;2.87;1.70;;;18.00;53.90;;;;;;5074929;28;20271;-48
2023/04/20 02:41:49;;;;;;;1.30;1.20;;;17.90;53.80;;;;;;5071389;28;20206;-48
2023/04/20 02:44:16;;;;;;;2.50;1.50;;;17.90;53.80;;;;;;5076609;28;20240;-48
2023/04/20 02:46:45;;;;;;;2.37;1.10;;;17.90;53.90;;;;;;5071478;28;20225;-47
2023/04/20 02:49:15;;;;;;;2.10;1.20;;;17.90;53.80;;;;;;5074566;28;20701;-48
2023/04/20 02:51:47;;;;;;;2.03;1.57;;;17.90;53.70;;;;;;5079039;28;20590;-47
2023/04/20 02:54:18;;;;;;;2.00;1.67;;;18.00;53.80;;;;;;5084374;28;20242;-48
2023/04/20 02:56:46;;;;;;;3.87;1.40;;;17.90;53.80;;;;;;5066239;28;20194;-48
2023/04/20 02:59:14;;;;;;;1.50;1.40;;;17.90;53.80;;;;;;5082442;28;20649;-48
2023/04/20 03:01:47;;;;;;;1.73;1.50;;;17.90;53.80;;;;;;5074411;28;20205;-48
2023/04/20 03:04:19;;;;;;;1.70;1.33;;;17.90;53.70;;;;;;5075777;28;20208;-48
2023/04/20 03:06:50;;;;;;;2.80;1.40;;;17.90;53.80;;;;;;5078099;28;20201;-48
2023/04/20 03:09:23;;;;;;;1.60;1.50;;;17.80;53.70;;;;;;5079950;28;20256;-48
2023/04/20 03:11:56;;;;;;;3.03;1.20;;;17.80;53.80;;;;;;5075761;28;20485;-48
2023/04/20 03:14:28;;;;;;;1.80;1.50;;;17.80;53.70;;;;;;5078083;28;20555;-48
2023/04/20 03:16:59;;;;;;;1.40;1.20;;;17.80;53.60;;;;;;5089081;28;20532;-48
2023/04/20 03:19:27;;;;;;;2.23;1.53;;;17.90;53.80;;;;;;5083154;28;20458;-48
2023/04/20 03:21:59;;;;;;;2.80;1.80;;;17.80;53.80;;;;;;5095474;28;20217;-48
2023/04/20 03:24:29;;;;;;;1.37;1.23;;;17.80;53.70;;;;;;5071631;28;20198;-48
2023/04/20 03:27:01;;;;;;;1.77;1.40;;;17.80;53.70;;;;;;5069356;28;20193;-48
2023/04/20 03:29:30;;;;;;;1.57;1.40;;;17.80;53.60;;;;;;5053735;28;20222;-48
2023/04/20 03:32:01;;;;;;;1.50;1.40;;;17.80;53.70;;;;;;5035020;28;20230;-48
2023/04/20 03:34:29;;;;;;;1.70;1.33;;;17.80;53.70;;;;;;5048641;28;20225;-48
2023/04/20 03:36:57;;;;;;;1.40;1.30;;;17.80;53.60;;;;;;5050739;28;20229;-48
2023/04/20 03:39:25;;;;;;;1.53;1.30;;;17.70;53.60;;;;;;5035574;28;20202;-48
2023/04/20 03:41:58;;;;;;;1.37;1.27;;;17.80;53.60;;;;;;5051147;28;20199;-48
2023/04/20 03:44:30;;;;;;;1.43;1.33;;;17.70;53.40;;;;;;5056835;28;20201;-48
2023/04/20 03:46:58;;;;;;;3.07;1.70;;;17.80;53.40;;;;;;5046148;28;20628;-48
2023/04/20 03:49:30;;;;;;;1.53;1.33;;;17.70;53.60;;;;;;5051750;28;20233;-48
2023/04/20 03:51:59;;;;;;;1.50;1.40;;;17.70;53.50;;;;;;5052095;28;20260;-48
2023/04/20 03:54:31;;;;;;;1.70;1.50;;;17.70;53.60;;;;;;5049846;28;20678;-48
2023/04/20 03:57:01;;;;;;;1.30;1.07;;;17.70;53.50;;;;;;5046120;28;20525;-48
2023/04/20 03:59:32;;;;;;;1.77;1.20;;;17.70;53.40;;;;;;5053545;28;20214;-48
2023/04/20 04:02:09;;;;;;;1.87;1.60;;;17.70;53.50;;;;;;5041742;28;20323;-48
2023/04/20 04:04:40;;;;;;;2.03;1.53;;;17.70;53.50;;;;;;5048275;28;20202;-48
2023/04/20 04:07:08;;;;;;;1.57;1.47;;;17.70;53.40;;;;;;5030351;28;20202;-48
2023/04/20 04:09:37;;;;;;;1.70;1.27;;;17.70;53.50;;;;;;5047638;28;20749;-48
2023/04/20 04:12:08;;;;;;;1.67;1.23;;;17.60;53.40;;;;;;5063111;28;20201;-48
2023/04/20 04:14:39;;;;;;;2.30;1.23;;;17.60;53.50;;;;;;5052478;28;20218;-48
2023/04/20 04:17:08;;;;;;;1.67;1.37;;;17.60;53.40;;;;;;5046869;28;20209;-48
2023/04/20 04:19:38;;;;;;;1.73;1.30;;;17.60;53.40;;;;;;5032461;28;20191;-48
2023/04/20 04:22:13;;;;;;;1.80;1.63;;;17.60;53.40;;;;;;5060356;28;20217;-48
2023/04/20 04:24:44;;;;;;;2.10;1.43;;;17.60;53.50;;;;;;5028554;28;20198;-48
2023/04/20 04:27:14;;;;;;;3.07;1.60;;;17.60;53.40;;;;;;5045618;28;20186;-48
2023/04/20 04:29:49;;;;;;;1.47;1.20;;;17.60;53.40;;;;;;5050170;28;20222;-48
2023/04/20 04:32:41;;;;;;;2.13;1.37;;;17.60;53.40;;;;;;5069788;28;20529;-48
2023/04/20 04:35:12;;;;;;;1.60;1.30;;;17.60;53.20;;;;;;5070605;28;20719;-48
2023/04/20 04:37:43;;;;;;;1.50;1.40;;;17.60;53.30;;;;;;5050731;28;20197;-48
2023/04/20 04:40:15;;;;;;;1.83;1.57;;;17.60;53.40;;;;;;5069366;28;20204;-48
2023/04/20 04:42:47;;;;;;;1.60;1.33;;;17.60;53.20;;;;;;5069205;28;20186;-48
2023/04/20 04:45:17;;;;;;;2.07;1.50;;;17.60;53.40;;;;;;5080836;28;20213;-49
2023/04/20 04:47:55;;;;;;;2.20;1.50;;;17.60;53.30;;;;;;5047893;28;20670;-48
2023/04/20 04:50:48;;;;;;;1.97;1.30;;;17.50;53.30;;;;;;5082708;28;20188;-48
2023/04/20 04:53:21;;;;;;;1.50;1.40;;;17.60;53.30;;;;;;5081750;28;20193;-48
2023/04/20 04:55:54;;;;;;;2.03;1.47;;;17.60;53.40;;;;;;5070465;28;20641;-50
2023/04/20 04:58:22;;;;;;;1.70;1.60;;;17.50;53.40;;;;;;5065356;28;20249;-48
2023/04/20 05:00:55;;;;;;;1.50;1.30;;;17.50;53.40;;;;;;5059166;28;20479;-48
2023/04/20 05:03:25;;;;;;;1.60;1.50;;;17.50;53.30;;;;;;5069364;28;20190;-48
2023/04/20 05:05:58;;;;;;;1.50;1.40;;;17.50;53.40;;;;;;5068852;28;20197;-48
2023/04/20 05:08:29;;;;;;;1.87;1.60;;;17.50;53.50;;;;;;5057639;28;20210;-48
2023/04/20 05:10:58;;;;;;;1.97;1.53;;;17.50;53.40;;;;;;5057332;28;20241;-48
2023/04/20 05:13:28;;;;;;;2.77;1.73;;;17.50;54.30;;;;;;5067677;28;20686;-48
2023/04/20 05:15:58;;;;;;;9.43;3.43;;;17.50;54.80;;;;;;5057893;28;20202;-48
2023/04/20 05:18:30;;;;;;;13.80;4.33;;;17.60;55.50;;;;;;5071497;28;20642;-48
2023/04/20 05:21:00;;;;;;;18.17;4.43;;;17.60;56.00;;;;;;5053065;28;20201;-48
2023/04/20 05:23:31;;;;;;;10.77;4.53;;;17.60;55.90;;;;;;5077538;28;20228;-48
2023/04/20 05:26:00;;;;;;;16.37;4.30;;;17.60;55.60;;;;;;5075256;28;20203;-48
2023/04/20 05:28:33;;;;;;;17.17;4.40;;;17.60;55.30;;;;;;5061817;28;20212;-48
2023/04/20 05:31:06;;;;;;;10.10;3.90;;;17.60;55.00;;;;;;5028729;28;20261;-48
2023/04/20 05:33:38;;;;;;;10.93;3.80;;;17.60;54.70;;;;;;5051840;28;20248;-48
2023/04/20 05:36:11;;;;;;;5.93;3.60;;;17.50;54.70;;;;;;5035882;28;20203;-48
2023/04/20 05:38:43;;;;;;;8.00;3.40;;;17.50;54.70;;;;;;5036825;28;20198;-48
2023/04/20 05:41:13;;;;;;;9.03;3.20;;;17.60;54.40;;;;;;5052902;28;20229;-48
2023/04/20 05:43:43;;;;;;;11.90;3.43;;;17.60;54.40;;;;;;5055605;28;20530;-48
2023/04/20 05:46:11;;;;;;;5.33;2.90;;;17.60;54.20;;;;;;5045570;28;20201;-48
2023/04/20 05:48:39;;;;;;;7.60;3.37;;;17.50;54.30;;;;;;5063843;28;20587;-48
2023/04/20 05:51:07;;;;;;;6.87;2.70;;;17.60;54.20;;;;;;5064291;28;20198;-48
2023/04/20 05:53:37;;;;;;;6.47;3.00;;;17.50;54.20;;;;;;5049961;28;20549;-48
2023/04/20 05:56:13;;;;;;;7.10;3.03;;;17.50;54.10;;;;;;5070810;28;20192;-48
2023/04/20 05:58:45;;;;;;;4.00;2.70;;;17.50;54.20;;;;;;5063864;28;20217;-48
2023/04/20 06:01:14;;;;;;;5.13;2.87;;;17.50;54.00;;;;;;5054445;28;20546;-48
2023/04/20 06:03:44;;;;;;;6.10;2.60;;;17.60;53.90;;;;;;5048069;28;20197;-48
2023/04/20 06:06:14;;;;;;;5.17;3.07;;;17.50;53.80;;;;;;5068172;28;20190;-48
2023/04/20 06:08:46;;;;;;;5.03;2.90;;;17.50;53.80;;;;;;5037262;28;20205;-48
2023/04/20 06:11:17;;;;;;;4.83;2.60;;;17.60;53.80;;;;;;5064947;28;20256;-48
2023/04/20 06:13:48;;;;;;;4.07;2.30;;;17.50;53.70;;;;;;5070259;28;20517;-48
2023/04/20 06:16:20;;;;;;;4.27;2.70;;;17.50;53.60;;;;;;5060472;28;20187;-48
2023/04/20 06:18:52;;;;;;;4.80;2.40;;;17.50;53.70;;;;;;5040050;28;20224;-48
2023/04/20 06:21:23;;;;;;;4.10;2.10;;;17.50;53.70;;;;;;5049487;28;20218;-48
2023/04/20 06:23:56;;;;;;;3.90;2.50;;;17.50;53.60;;;;;;5051718;28;20198;-48
2023/04/20 06:26:24;;;;;;;4.33;2.67;;;17.40;53.60;;;;;;5052319;28;20742;-48
2023/04/20 06:28:55;;;;;;;5.10;2.10;;;17.50;53.70;;;;;;5047487;28;20222;-47
2023/04/20 06:31:25;;;;;;;6.27;2.20;;;17.50;53.70;;;;;;5073774;28;20225;-48
2023/04/20 06:33:56;;;;;;;3.23;2.20;;;17.50;53.50;;;;;;5074474;28;20207;-48
2023/04/20 06:36:28;;;;;;;5.10;2.60;;;17.50;53.50;;;;;;5083782;28;20862;-48
2023/04/20 06:38:58;;;;;;;4.23;2.80;;;17.50;53.50;;;;;;5086813;28;20212;-48
2023/04/20 06:41:31;;;;;;;4.10;2.17;;;17.50;53.60;;;;;;5090094;28;20213;-48
2023/04/20 06:43:59;;;;;;;3.47;2.37;;;17.40;53.40;;;;;;5089318;28;20197;-48
2023/04/20 06:46:29;;;;;;;3.87;2.30;;;17.50;53.60;;;;;;5079626;28;20190;-48
2023/04/20 06:49:04;;;;;;;3.97;2.10;;;17.50;53.30;;;;;;5070507;28;20305;-48
2023/04/20 06:51:35;;;;;;;3.37;2.43;;;17.50;53.40;;;;;;5086775;28;20741;-48
2023/04/20 06:54:06;;;;;;;3.93;2.20;;;17.40;53.20;;;;;;5080009;28;20203;-47
2023/04/20 06:56:34;;;;;;;3.57;2.27;;;17.50;53.20;;;;;;5080273;28;20194;-48
2023/04/20 06:59:06;;;;;;;4.43;2.80;;;17.50;53.30;;;;;;5075674;28;20228;-48
2023/04/20 07:01:34;;;;;;;2.77;1.90;;;17.50;53.40;;;;;;5087631;28;20673;-47
2023/04/20 07:04:06;;;;;;;4.83;2.43;;;17.50;53.40;;;;;;5089480;28;20188;-48
2023/04/20 07:06:36;;;;;;;4.67;2.27;;;17.50;53.30;;;;;;5088592;28;20228;-48
2023/04/20 07:09:09;;;;;;;3.53;2.17;;;17.50;53.20;;;;;;5084707;28;20201;-48
2023/04/20 07:11:39;;;;;;;2.80;2.40;;;17.50;53.20;;;;;;5080951;28;20479;-48
2023/04/20 07:14:07;;;;;;;3.40;2.17;;;17.50;53.30;;;;;;5071595;28;20201;-48
2023/04/20 07:16:37;;;;;;;4.53;2.30;;;17.50;53.00;;;;;;5048791;28;20209;-48
2023/04/20 07:19:10;;;;;;;3.00;2.30;;;17.50;53.30;;;;;;5066828;28;20208;-48
2023/04/20 07:21:42;;;;;;;4.23;2.50;;;17.60;53.40;;;;;;5079671;28;20210;-48
2023/04/20 07:24:14;;;;;;;2.40;1.67;;;17.50;53.40;;;;;;5089689;28;20200;-47
2023/04/20 07:26:46;;;;;;;3.77;2.10;;;17.60;53.40;;;;;;5090965;28;20205;-48
2023/04/20 07:29:14;;;;;;;3.57;2.23;;;17.50;53.30;;;;;;5067068;28;20287;-48
2023/04/20 07:31:46;;;;;;;2.93;1.87;;;17.50;53.00;;;;;;5074295;28;20222;-48
2023/04/20 07:34:16;;;;;;;3.53;2.37;;;17.50;53.00;;;;;;5077032;28;20264;-47
2023/04/20 07:36:48;;;;;;;4.17;1.87;;;17.50;53.20;;;;;;5062098;28;20228;-48
2023/04/20 07:39:17;;;;;;;4.00;2.13;;;17.50;52.90;;;;;;5047762;28;20215;-47
2023/04/20 07:41:48;;;;;;;2.43;2.23;;;17.50;53.10;;;;;;5084290;28;20628;-48
2023/04/20 07:44:20;;;;;;;3.97;1.73;;;17.50;53.20;;;;;;5089929;28;20208;-47
2023/04/20 07:46:56;;;;;;;2.27;2.03;;;17.50;52.90;;;;;;5065885;28;20205;-48
2023/04/20 07:49:28;;;;;;;2.63;1.90;;;17.50;53.00;;;;;;5062741;28;20213;-47
2023/04/20 07:51:56;;;;;;;4.00;2.00;;;17.60;52.90;;;;;;5081224;28;20209;-48
2023/04/20 07:54:44;;;;;;;1.47;1.37;;;17.50;52.90;;;;;;5069148;28;20293;-48
2023/04/20 07:57:15;;;;;;;2.03;1.57;;;17.60;52.90;;;;;;5049073;28;20201;-48
2023/04/20 07:59:47;;;;;;;5.57;1.73;;;17.50;53.10;;;;;;5065311;28;20205;-48
2023/04/20 08:02:16;;;;;;;1.70;1.60;;;17.50;53.00;;;;;;5061669;28;20202;-48
2023/04/20 08:04:48;;;;;;;4.37;1.70;;;17.60;53.10;;;;;;5074880;28;20225;-48
2023/04/20 08:07:19;;;;;;;3.77;2.00;;;17.60;53.10;;;;;;5070138;28;20201;-48
2023/04/20 08:09:50;;;;;;;2.53;1.80;;;17.50;53.00;;;;;;5081453;28;20240;-48
2023/04/20 08:12:21;;;;;;;1.80;1.67;;;17.50;53.10;;;;;;5075021;28;20221;-48
2023/04/20 08:14:52;;;;;;;2.43;1.97;;;17.50;52.80;;;;;;5062239;28;20205;-47
2023/04/20 08:17:21;;;;;;;2.47;2.03;;;17.50;52.90;;;;;;5080667;28;20638;-48
2023/04/20 08:19:52;;;;;;;2.20;2.00;;;17.60;53.20;;;;;;5079896;28;20198;-47
2023/04/20 08:22:25;;;;;;;2.67;1.90;;;17.60;53.20;;;;;;5080749;28;20220;-48
2023/04/20 08:24:56;;;;;;;2.33;2.00;;;17.60;53.20;;;;;;5051261;28;20197;-48
2023/04/20 08:27:39;;;;;;;2.10;1.83;;;17.60;53.20;;;;;;5059770;28;20590;-47
2023/04/20 08:30:12;;;;;;;2.20;1.97;;;17.50;53.20;;;;;;5078142;28;20308;-48
2023/04/20 08:32:45;;;;;;;3.07;1.63;;;17.50;52.90;;;;;;5081812;28;20186;-48
2023/04/20 08:35:15;;;;;;;2.93;1.70;;;17.60;53.20;;;;;;5078770;28;20229;-48
2023/04/20 08:37:46;;;;;;;2.60;1.50;;;17.60;53.10;;;;;;5069141;28;20196;-47
2023/04/20 08:40:18;;;;;;;1.77;1.60;;;17.60;52.90;;;;;;5078617;28;20611;-48
2023/04/20 08:42:48;;;;;;;2.30;1.67;;;17.60;53.00;;;;;;5061145;28;20205;-48
2023/04/20 08:45:18;;;;;;;2.30;1.70;;;17.60;53.10;;;;;;5079213;28;20693;-48
2023/04/20 08:47:46;;;;;;;4.23;1.70;;;17.60;52.90;;;;;;5079109;28;20201;-48
2023/04/20 08:50:19;;;;;;;2.23;1.97;;;17.60;52.90;;;;;;5051928;28;20209;-48
2023/04/20 08:52:51;;;;;;;1.80;1.70;;;17.60;52.90;;;;;;5050129;28;20205;-47
2023/04/20 08:55:21;;;;;;;3.57;1.90;;;17.60;52.90;;;;;;5069462;28;20202;-48
2023/04/20 08:57:50;;;;;;;1.63;1.53;;;17.60;53.60;;;;;;5067267;28;20202;-48
2023/04/20 09:00:21;;;;;;;2.47;1.70;;;17.60;52.70;;;;;;5071713;28;20205;-48
2023/04/20 09:02:57;;;;;;;2.00;1.83;;;17.60;52.90;;;;;;5095184;28;20266;-48
2023/04/20 09:05:40;;;;;;;1.93;1.73;;;17.60;53.00;;;;;;5078319;28;20233;-48
2023/04/20 09:08:11;;;;;;;1.77;1.60;;;17.60;52.90;;;;;;5077917;28;20218;-48
2023/04/20 09:10:43;;;;;;;2.00;1.73;;;17.60;52.90;;;;;;5085047;28;20240;-48
2023/04/20 09:13:23;;;;;;;1.80;1.57;;;17.60;53.00;;;;;;5060878;28;20673;-48
2023/04/20 09:15:53;;;;;;;2.63;1.60;;;17.60;53.00;;;;;;5074697;28;20194;-48
2023/04/20 09:18:23;;;;;;;1.70;1.60;;;17.60;53.10;;;;;;5086324;28;20197;-48
2023/04/20 09:20:54;;;;;;;1.87;1.73;;;17.60;53.10;;;;;;5054091;28;20200;-48
2023/04/20 09:23:25;;;;;;;2.33;1.70;;;17.60;52.90;;;;;;5077863;28;20604;-48
2023/04/20 09:25:56;;;;;;;2.17;1.33;;;17.60;52.90;;;;;;5069127;28;20185;-48
2023/04/20 09:28:37;;;;;;;2.17;1.53;;;17.60;52.80;;;;;;5075136;28;20641;-47
2023/04/20 09:31:38;;;;;;;1.97;1.40;;;17.60;52.80;;;;;;5031852;28;20242;-48
2023/04/20 09:34:06;;;;;;;1.90;1.50;;;17.60;52.90;;;;;;5040495;28;20249;-48
2023/04/20 09:36:43;;;;;;;1.87;1.63;;;17.60;53.00;;;;;;5038059;28;20802;-48
2023/04/20 09:39:22;;;;;;;1.40;1.30;;;17.60;52.80;;;;;;5038861;28;20212;-48
2023/04/20 09:41:54;;;;;;;1.83;1.40;;;17.60;52.90;;;;;;5063024;28;20183;-48
2023/04/20 09:44:25;;;;;;;1.97;1.50;;;17.70;53.00;;;;;;5070647;28;20208;-48
2023/04/20 09:46:55;;;;;;;2.37;1.60;;;17.70;53.00;;;;;;5066503;28;20284;-48
2023/04/20 09:49:30;;;;;;;1.73;1.20;;;17.70;53.00;;;;;;5045803;28;20210;-48
2023/04/20 09:52:03;;;;;;;1.60;1.30;;;17.70;53.00;;;;;;5065063;28;20809;-48
2023/04/20 09:54:35;;;;;;;1.47;1.37;;;17.70;53.00;;;;;;5019376;28;20659;-48
2023/04/20 09:57:11;;;;;;;1.60;1.20;;;17.70;53.00;;;;;;5030827;28;20198;-48
2023/04/20 09:59:45;;;;;;;1.30;1.20;;;17.70;52.90;;;;;;5035137;28;20651;-48
2023/04/20 10:02:20;;;;;;;1.67;1.37;;;17.70;52.80;;;;;;5044433;28;20217;-49
2023/04/20 10:05:01;;;;;;;2.40;1.57;;;17.70;52.80;;;;;;5055397;28;20199;-47
2023/04/20 10:07:33;;;;;;;1.27;1.17;;;17.80;52.80;;;;;;5063061;28;20202;-48
2023/04/20 10:10:09;;;;;;;1.60;1.40;;;17.70;52.70;;;;;;5054551;28;20258;-48
2023/04/20 10:12:52;;;;;;;2.00;1.50;;;17.70;52.70;;;;;;5055490;28;20217;-48
2023/04/20 10:15:23;;;;;;;1.87;1.40;;;17.80;52.80;;;;;;5045074;28;20201;-48
2023/04/20 10:17:52;;;;;;;1.97;1.30;;;17.80;52.80;;;;;;5051720;28;20200;-48
2023/04/20 10:20:29;;;;;;;1.57;1.30;;;17.80;52.80;;;;;;5064642;28;20201;-48
2023/04/20 10:23:18;;;;;;;2.33;1.40;;;17.80;52.70;;;;;;5048505;28;20214;-47
2023/04/20 10:26:02;;;;;;;2.50;1.40;;;17.80;52.70;;;;;;5053320;28;20311;-48
2023/04/20 10:28:43;;;;;;;1.63;1.23;;;17.80;52.80;;;;;;5061747;28;20185;-48
2023/04/20 10:31:15;;;;;;;2.80;1.60;;;17.80;52.70;;;;;;5056813;28;20717;-48
2023/04/20 10:33:56;;;;;;;1.70;1.43;;;17.80;52.70;;;;;;5071094;28;20549;-48
2023/04/20 10:36:35;;;;;;;1.87;1.57;;;17.80;52.70;;;;;;5077981;28;20200;-48
2023/04/20 10:39:21;;;;;;;1.87;1.53;;;17.80;52.70;;;;;;5091565;28;20208;-48
2023/04/20 10:42:00;;;;;;;2.00;1.53;;;17.80;52.50;;;;;;5086720;28;20193;-48
2023/04/20 10:44:34;;;;;;;3.43;1.40;;;17.80;52.60;;;;;;5094769;28;20860;-48
2023/04/20 10:47:05;;;;;;;2.43;1.33;;;17.80;52.60;;;;;;5097136;28;20204;-47
2023/04/20 10:49:35;;;;;;;2.23;1.30;;;17.80;52.60;;;;;;5095754;28;20201;-48
2023/04/20 10:52:08;;;;;;;1.60;1.50;;;17.90;52.70;;;;;;5106729;28;20231;-48
2023/04/20 10:54:41;;;;;;;2.00;1.40;;;17.90;53.20;;;;;;5088582;28;20478;-48
2023/04/20 10:57:15;;;;;;;1.30;1.20;;;17.80;52.50;;;;;;5095530;28;20189;-48
2023/04/20 10:59:45;;;;;;;1.80;1.30;;;17.90;52.50;;;;;;5079612;28;20223;-48
2023/04/20 11:02:17;;;;;;;2.23;1.60;;;17.90;52.50;;;;;;5098259;28;20184;-48
2023/04/20 11:04:47;;;;;;;2.07;1.90;;;17.90;52.50;;;;;;5100989;28;20665;-48
2023/04/20 11:07:16;;;;;;;1.77;1.50;;;17.90;52.70;;;;;;5095280;28;20205;-48
2023/04/20 11:09:55;;;;;;;3.07;1.27;;;17.80;52.70;;;;;;5074073;28;20212;-48
2023/04/20 11:12:25;;;;;;;1.53;1.43;;;17.90;52.80;;;;;;5088491;28;20205;-48
2023/04/20 11:14:56;;;;;;;1.73;1.50;;;17.90;52.90;;;;;;5090262;28;20200;-47
2023/04/20 11:17:32;;;;;;;1.67;1.57;;;17.80;52.90;;;;;;5089236;28;20551;-48
2023/04/20 11:20:15;;;;;;;1.60;1.30;;;17.90;52.90;;;;;;5080839;28;20205;-48
2023/04/20 11:22:56;;;;;;;1.63;1.50;;;17.90;52.90;;;;;;5076364;28;20264;-48
2023/04/20 11:25:52;;;;;;;2.13;1.30;;;17.80;52.90;;;;;;5078578;28;20236;-48
2023/04/20 11:28:29;;;;;;;1.50;1.40;;;17.90;52.90;;;;;;5067126;28;20285;-47
2023/04/20 11:30:58;;;;;;;2.20;1.30;;;17.90;52.90;;;;;;5093088;28;20279;-48
2023/04/20 11:33:32;;;;;;;1.73;1.40;;;17.90;53.00;;;;;;5098196;28;20668;-48
2023/04/20 11:36:21;;;;;;;1.50;1.40;;;17.90;53.00;;;;;;5091825;28;20208;-48
2023/04/20 11:38:54;;;;;;;1.67;1.30;;;17.90;53.00;;;;;;5090630;28;20184;-48
2023/04/20 11:41:25;;;;;;;1.50;1.40;;;17.90;52.90;;;;;;5107774;28;20609;-48
2023/04/20 11:43:55;;;;;;;1.87;1.40;;;17.90;52.90;;;;;;5106389;28;20273;-48
2023/04/20 11:46:24;;;;;;;1.93;1.67;;;17.90;52.80;;;;;;5099567;28;20204;-47
2023/04/20 11:48:56;;;;;;;1.50;1.40;;;17.90;52.80;;;;;;5104196;28;20219;-48
2023/04/20 11:51:30;;;;;;;1.97;1.40;;;17.90;52.90;;;;;;5091382;28;20228;-48
2023/04/20 11:54:10;;;;;;;2.17;1.30;;;17.90;53.00;;;;;;5101100;28;20192;-48
2023/04/20 11:56:41;;;;;;;1.53;1.37;;;17.90;53.00;;;;;;5093237;28;20188;-48
2023/04/20 11:59:12;;;;;;;1.57;1.47;;;17.90;53.00;;;;;;5101251;27;20529;-48
2023/04/20 12:01:44;;;;;;;1.30;1.20;;;17.90;52.90;;;;;;5105753;28;20212;-48
2023/04/20 12:04:31;;;;;;;2.20;1.60;;;17.90;52.90;;;;;;5062535;28;20311;-48
2023/04/20 12:07:12;;;;;;;1.50;1.40;;;17.90;52.90;;;;;;5068594;28;20418;-47
2023/04/20 12:09:46;;;;;;;1.63;1.40;;;17.90;52.90;;;;;;5108773;28;20590;-47
2023/04/20 12:12:16;;;;;;;1.27;1.17;;;18.00;52.90;;;;;;5102766;28;20675;-48
2023/04/20 12:14:47;;;;;;;1.40;1.30;;;17.90;52.90;;;;;;5094688;28;20227;-48
2023/04/20 12:17:15;;;;;;;2.00;1.30;;;18.00;52.90;;;;;;5087250;28;20262;-45
2023/04/20 12:19:46;;;;;;;1.50;1.27;;;18.00;53.00;;;;;;5096312;28;20200;-45
2023/04/20 12:22:17;;;;;;;1.87;1.50;;;18.00;52.90;;;;;;5095934;28;20272;-47
2023/04/20 12:24:47;;;;;;;1.70;1.47;;;18.00;52.90;;;;;;5087532;28;20193;-47
2023/04/20 12:27:17;;;;;;;1.67;1.53;;;18.00;52.80;;;;;;5090838;28;20196;-47
2023/04/20 12:29:47;;;;;;;2.90;1.63;;;18.00;52.70;;;;;;5072019;28;20730;-47
2023/04/20 12:32:20;;;;;;;1.90;1.37;;;18.00;52.70;;;;;;5069416;28;20218;-48
2023/04/20 12:34:52;;;;;;;1.63;1.23;;;18.00;52.70;;;;;;5069806;28;20217;-48
2023/04/20 12:37:23;;;;;;;1.40;1.30;;;18.00;52.70;;;;;;5069619;28;20654;-49
2023/04/20 12:39:56;;;;;;;1.97;1.87;;;18.00;52.80;;;;;;5056265;28;20217;-49
2023/04/20 12:42:26;;;;;;;1.63;1.53;;;18.00;52.80;;;;;;5070786;28;20212;-48
2023/04/20 12:44:56;;;;;;;1.67;1.57;;;18.00;52.90;;;;;;5067841;28;20204;-48
2023/04/20 12:47:28;;;;;;;1.83;1.73;;;18.00;52.90;;;;;;5049584;28;20204;-47
2023/04/20 12:49:59;;;;;;;1.67;1.37;;;18.00;53.00;;;;;;5065370;28;20225;-48
2023/04/20 12:52:44;;;;;;;1.90;1.70;;;18.00;53.00;;;;;;5061052;28;20263;-48
2023/04/20 12:55:13;;;;;;;4.37;1.43;;;18.00;53.00;;;;;;5072718;28;20208;-47
2023/04/20 12:57:57;;;;;;;1.77;1.50;;;18.10;53.00;;;;;;5072680;28;20232;-46
2023/04/20 13:00:26;;;;;;;4.27;1.60;;;18.10;52.80;;;;;;5072264;28;20224;-47
2023/04/20 13:02:56;;;;;;;1.57;1.47;;;18.10;52.70;;;;;;5059115;28;20769;-47
2023/04/20 13:05:28;;;;;;;1.73;1.40;;;18.10;52.80;;;;;;5075654;28;20228;-47
2023/04/20 13:08:00;;;;;;;2.27;1.60;;;18.00;52.70;;;;;;5074454;28;20194;-47
2023/04/20 13:10:31;;;;;;;1.97;1.73;;;18.00;52.80;;;;;;5078036;28;20777;-45